Time;durP1;ratioP1;P1;durP2;ratioP2;P2;SDS_P1;SDS_P2;PMS_P1;PMS_P2;Temp;Humidity;BMP_temperature;BMP_pressure;BME280_temperature;BME280_humidity;BME280_pressure;Samples;Min_cycle;Max_cycle;Signal;HPM_P1;HPM_P2
2022/08/25 00:01:44;;;;;;;21.55;19.23;;;19.20;99.90;;;;;;5040196;28;20049;-71
2022/08/25 00:04:13;;;;;;;21.77;18.50;;;19.20;99.90;;;;;;5041386;28;20044;-71
2022/08/25 00:06:41;;;;;;;19.92;17.88;;;19.10;99.90;;;;;;5025303;28;20060;-71
2022/08/25 00:09:08;;;;;;;19.60;17.33;;;19.00;99.90;;;;;;5035345;28;20584;-71
2022/08/25 00:11:35;;;;;;;20.98;18.58;;;19.00;99.90;;;;;;5040241;28;20510;-71
2022/08/25 00:14:05;;;;;;;20.55;18.13;;;18.90;99.90;;;;;;5037605;28;20053;-71
2022/08/25 00:16:31;;;;;;;19.50;16.05;;;18.90;99.90;;;;;;5029249;28;20048;-71
2022/08/25 00:19:03;;;;;;;18.02;16.20;;;18.90;99.90;;;;;;5038576;28;20049;-71
2022/08/25 00:21:30;;;;;;;18.52;16.58;;;19.00;99.90;;;;;;5039800;28;20179;-71
2022/08/25 00:23:57;;;;;;;16.20;12.00;;;19.00;99.90;;;;;;5039660;28;20044;-71
2022/08/25 00:26:23;;;;;;;13.95;11.82;;;19.20;99.90;;;;;;5030823;28;20049;-72
2022/08/25 00:28:49;;;;;;;14.27;12.13;;;19.30;99.90;;;;;;5037325;28;20045;-71
2022/08/25 00:31:20;;;;;;;15.80;10.63;;;19.40;99.90;;;;;;5043133;28;20113;-71
2022/08/25 00:33:47;;;;;;;11.50;9.80;;;19.50;99.90;;;;;;5047026;28;20170;-71
2022/08/25 00:36:14;;;;;;;10.90;9.45;;;19.60;99.90;;;;;;5036022;28;20126;-72
2022/08/25 00:38:42;;;;;;;12.88;9.40;;;19.60;99.90;;;;;;5038475;28;20033;-71
2022/08/25 00:41:11;;;;;;;9.80;8.75;;;19.60;99.90;;;;;;5026439;28;20724;-70
2022/08/25 00:43:39;;;;;;;16.98;8.30;;;19.60;99.90;;;;;;5048580;28;20044;-72
2022/08/25 00:46:09;;;;;;;10.98;8.10;;;19.60;99.90;;;;;;5042085;28;20083;-73
2022/08/25 00:48:37;;;;;;;11.38;8.10;;;19.60;99.90;;;;;;5039656;28;20483;-71
2022/08/25 00:51:06;;;;;;;8.98;7.70;;;19.60;99.90;;;;;;5048144;28;20079;-72
2022/08/25 00:53:31;;;;;;;13.95;7.18;;;19.60;99.90;;;;;;5052696;28;20033;-71
2022/08/25 00:55:57;;;;;;;9.95;7.30;;;19.60;99.90;;;;;;5046675;28;20037;-71
2022/08/25 00:58:26;;;;;;;10.02;6.82;;;19.60;99.90;;;;;;5032000;28;20719;-71
2022/08/25 01:00:54;;;;;;;10.38;7.15;;;19.50;99.90;;;;;;5050399;28;20128;-71
2022/08/25 01:03:22;;;;;;;9.65;7.63;;;19.60;99.90;;;;;;5049301;28;20099;-71
2022/08/25 01:05:48;;;;;;;10.40;7.93;;;19.50;99.90;;;;;;5048509;28;20132;-71
2022/08/25 01:08:15;;;;;;;9.90;6.97;;;19.40;99.90;;;;;;5028659;28;20045;-71
2022/08/25 01:10:43;;;;;;;9.70;7.53;;;19.40;99.90;;;;;;5047337;28;20080;-71
2022/08/25 01:13:18;;;;;;;8.55;7.00;;;19.30;99.90;;;;;;5044950;28;20049;-71
2022/08/25 01:15:46;;;;;;;7.70;6.72;;;19.30;99.90;;;;;;5046502;28;20395;-71
2022/08/25 01:18:13;;;;;;;9.18;6.18;;;19.30;99.90;;;;;;5029138;28;20048;-71
2022/08/25 01:20:39;;;;;;;8.75;6.07;;;19.30;99.90;;;;;;5029771;28;20048;-71
2022/08/25 01:23:06;;;;;;;9.73;6.20;;;19.20;99.90;;;;;;5046614;28;20136;-70
2022/08/25 01:25:41;;;;;;;8.07;5.53;;;19.30;99.90;;;;;;5030334;28;20049;-71
2022/08/25 01:28:08;;;;;;;8.18;5.40;;;19.20;99.90;;;;;;5030296;28;20053;-71
2022/08/25 01:30:34;;;;;;;5.93;5.32;;;19.10;99.90;;;;;;5047143;28;20040;-70
2022/08/25 01:33:04;;;;;;;7.40;5.07;;;19.20;99.90;;;;;;5049112;28;20122;-71
2022/08/25 01:35:31;;;;;;;8.77;5.47;;;19.10;99.90;;;;;;5048075;28;20051;-71
2022/08/25 01:37:58;;;;;;;8.98;5.28;;;19.10;99.90;;;;;;5034886;28;20171;-71
2022/08/25 01:40:23;;;;;;;5.95;4.85;;;19.10;99.90;;;;;;5046769;28;20111;-71
2022/08/25 01:43:17;;;;;;;5.57;5.05;;;19.00;99.90;;;;;;5027503;28;20544;-71
2022/08/25 01:45:46;;;;;;;6.57;4.80;;;19.00;99.90;;;;;;5044798;28;20073;-71
2022/08/25 01:48:13;;;;;;;10.20;5.55;;;19.00;99.90;;;;;;5030234;28;20504;-71
2022/08/25 01:50:40;;;;;;;10.95;4.60;;;18.90;99.90;;;;;;5042277;28;20052;-71
2022/08/25 01:53:21;;;;;;;6.75;4.68;;;19.00;99.90;;;;;;5028407;28;20507;-71
2022/08/25 01:56:00;;;;;;;8.45;4.70;;;18.90;99.90;;;;;;5044801;28;20081;-71
2022/08/25 01:58:33;;;;;;;6.20;3.95;;;18.90;99.90;;;;;;5025381;28;20040;-71
2022/08/25 02:01:02;;;;;;;7.35;4.30;;;18.90;99.90;;;;;;5041078;28;21019;-71
2022/08/25 02:03:28;;;;;;;6.40;4.45;;;18.70;99.90;;;;;;5045234;28;20091;-70
2022/08/25 02:05:56;;;;;;;11.52;4.88;;;18.80;99.90;;;;;;5043330;28;20032;-71
2022/08/25 02:08:22;;;;;;;9.48;4.50;;;18.80;99.90;;;;;;5026610;28;20045;-71
2022/08/25 02:10:50;;;;;;;6.00;4.60;;;18.80;99.90;;;;;;5040438;28;20033;-71
2022/08/25 02:13:16;;;;;;;6.95;4.18;;;18.70;99.90;;;;;;5039534;28;20120;-71
2022/08/25 02:15:46;;;;;;;7.40;4.40;;;18.80;99.90;;;;;;5042440;28;20088;-71
2022/08/25 02:18:12;;;;;;;6.22;4.57;;;18.80;99.90;;;;;;5023753;28;20515;-70
2022/08/25 02:20:38;;;;;;;5.85;4.80;;;18.80;99.90;;;;;;5042862;28;20041;-71
2022/08/25 02:23:04;;;;;;;10.75;4.50;;;18.80;99.90;;;;;;5042916;28;20045;-70
2022/08/25 02:25:31;;;;;;;9.45;4.22;;;18.80;99.90;;;;;;5041059;28;20055;-71
2022/08/25 02:27:57;;;;;;;5.85;3.90;;;18.80;99.90;;;;;;5027582;28;20484;-71
2022/08/25 02:30:23;;;;;;;9.80;4.35;;;18.80;99.90;;;;;;5044084;28;20566;-71
2022/08/25 02:32:49;;;;;;;9.27;4.25;;;18.80;99.90;;;;;;5041963;28;20179;-71
2022/08/25 02:35:16;;;;;;;7.70;4.65;;;18.80;99.90;;;;;;5044708;28;20194;-71
2022/08/25 02:37:42;;;;;;;6.53;4.50;;;18.90;99.90;;;;;;5010638;28;20055;-71
2022/08/25 02:40:08;;;;;;;8.18;4.55;;;19.00;99.90;;;;;;5042657;28;20049;-71
2022/08/25 02:42:34;;;;;;;9.48;4.90;;;19.00;99.90;;;;;;5043890;28;20045;-71
2022/08/25 02:44:59;;;;;;;6.25;4.40;;;19.10;99.90;;;;;;5046008;28;20102;-71
2022/08/25 02:47:25;;;;;;;7.00;4.78;;;19.10;99.90;;;;;;5035291;28;20044;-70
2022/08/25 02:49:51;;;;;;;11.00;4.80;;;19.10;99.90;;;;;;5041062;28;20048;-71
2022/08/25 02:52:17;;;;;;;8.77;4.93;;;19.10;99.90;;;;;;5047334;28;20048;-70
2022/08/25 02:54:43;;;;;;;10.70;4.68;;;19.10;99.90;;;;;;5048528;28;20127;-71
2022/08/25 02:57:10;;;;;;;8.48;4.45;;;19.10;99.90;;;;;;5032216;28;20182;-70
2022/08/25 02:59:37;;;;;;;7.05;4.45;;;19.10;99.90;;;;;;5043033;28;20044;-71
2022/08/25 03:02:04;;;;;;;9.20;4.68;;;19.10;99.90;;;;;;5042682;28;20053;-69
2022/08/25 03:04:30;;;;;;;7.90;4.32;;;19.10;99.90;;;;;;5048834;28;21414;-71
2022/08/25 03:06:56;;;;;;;6.88;4.47;;;19.10;99.90;;;;;;5014076;28;20037;-71
2022/08/25 03:09:22;;;;;;;7.55;4.50;;;19.10;99.90;;;;;;5044916;28;20037;-70
2022/08/25 03:11:48;;;;;;;7.45;4.63;;;19.00;99.90;;;;;;5042210;28;20041;-71
2022/08/25 03:14:14;;;;;;;8.77;4.50;;;19.10;99.90;;;;;;5044706;28;20032;-70
2022/08/25 03:16:42;;;;;;;8.13;4.50;;;19.00;99.90;;;;;;5033552;28;20068;-71
2022/08/25 03:19:09;;;;;;;7.97;4.43;;;19.00;99.90;;;;;;5040612;28;20049;-71
2022/08/25 03:21:37;;;;;;;9.60;4.40;;;19.00;99.90;;;;;;5042574;28;20045;-70
2022/08/25 03:24:04;;;;;;;6.28;4.18;;;18.90;99.90;;;;;;5045800;28;20083;-71
2022/08/25 03:29:16;;;;;;;4.72;4.13;;;18.80;99.90;;;;;;5044272;28;20097;-70
2022/08/25 03:31:43;;;;;;;9.02;4.90;;;18.80;99.90;;;;;;5043626;28;20049;-71
2022/08/25 03:34:15;;;;;;;6.55;4.30;;;18.70;99.90;;;;;;5047903;28;20064;-71
2022/08/25 03:36:41;;;;;;;8.38;4.75;;;18.60;99.90;;;;;;5030486;28;20045;-71
2022/08/25 03:39:07;;;;;;;7.05;4.00;;;18.60;99.90;;;;;;5041311;28;20056;-70
2022/08/25 03:41:33;;;;;;;8.82;4.40;;;18.50;99.90;;;;;;5043968;28;20436;-71
2022/08/25 03:44:01;;;;;;;7.05;4.10;;;18.50;99.90;;;;;;5044250;28;20083;-71
2022/08/25 03:46:29;;;;;;;8.82;4.10;;;18.40;99.90;;;;;;5031184;28;20056;-71
2022/08/25 03:48:55;;;;;;;7.05;4.10;;;18.40;99.90;;;;;;5035531;28;20515;-71
2022/08/25 03:51:23;;;;;;;6.72;4.13;;;18.40;99.90;;;;;;5040822;28;20624;-71
2022/08/25 03:53:49;;;;;;;6.05;4.20;;;18.30;99.90;;;;;;5044179;28;20044;-71
2022/08/25 03:56:15;;;;;;;8.35;4.30;;;18.30;99.90;;;;;;5033081;28;20045;-71
2022/08/25 03:58:41;;;;;;;9.25;4.35;;;18.30;99.90;;;;;;5034553;28;20094;-71
2022/08/25 04:01:07;;;;;;;5.45;4.00;;;18.20;99.90;;;;;;5038396;28;20599;-71
2022/08/25 04:03:33;;;;;;;6.22;4.18;;;18.20;99.90;;;;;;5025396;28;20056;-71
2022/08/25 04:06:03;;;;;;;8.85;4.30;;;18.20;99.90;;;;;;5040431;28;20029;-71
2022/08/25 04:08:29;;;;;;;7.18;4.25;;;18.10;99.90;;;;;;5026432;28;20095;-71
2022/08/25 04:10:55;;;;;;;6.18;3.80;;;18.10;99.90;;;;;;5038554;28;20032;-71
2022/08/25 04:13:21;;;;;;;6.72;3.80;;;18.10;99.90;;;;;;5024150;28;20123;-70
2022/08/25 04:15:47;;;;;;;9.13;4.25;;;18.10;99.90;;;;;;5045912;28;20045;-70
2022/08/25 04:18:13;;;;;;;6.72;4.32;;;18.00;99.90;;;;;;5028876;28;20049;-71
2022/08/25 04:20:40;;;;;;;7.60;4.40;;;18.00;99.90;;;;;;5037278;28;20492;-70
2022/08/25 04:23:06;;;;;;;7.15;4.57;;;18.00;99.90;;;;;;5041234;28;20140;-70
2022/08/25 04:25:32;;;;;;;8.43;4.70;;;18.00;99.90;;;;;;5041296;28;20391;-70
2022/08/25 04:27:58;;;;;;;7.05;4.40;;;18.00;99.90;;;;;;5027087;28;20051;-70
2022/08/25 04:30:24;;;;;;;8.65;4.32;;;18.00;99.90;;;;;;5038468;28;20095;-70
2022/08/25 04:32:49;;;;;;;50.95;5.65;;;18.00;99.90;;;;;;5036233;28;20044;-71
2022/08/25 04:35:15;;;;;;;6.47;3.97;;;18.00;99.90;;;;;;5044377;28;20068;-70
2022/08/25 04:37:41;;;;;;;7.43;4.57;;;18.00;99.90;;;;;;5027752;28;20076;-71
2022/08/25 04:40:08;;;;;;;7.70;4.18;;;17.90;99.90;;;;;;5042551;28;20069;-70
2022/08/25 04:42:34;;;;;;;8.25;4.50;;;17.90;99.90;;;;;;5043618;28;20510;-70
2022/08/25 04:45:00;;;;;;;6.07;4.70;;;17.80;99.90;;;;;;5046933;28;20088;-70
2022/08/25 04:47:27;;;;;;;11.13;4.85;;;17.80;99.90;;;;;;5026501;28;20073;-69
2022/08/25 04:49:52;;;;;;;7.00;4.35;;;17.80;99.90;;;;;;5040017;28;20037;-70
2022/08/25 04:52:19;;;;;;;6.07;4.22;;;17.80;99.90;;;;;;5042288;28;20229;-70
2022/08/25 04:54:45;;;;;;;8.70;4.75;;;17.70;99.90;;;;;;5047745;28;20371;-70
2022/08/25 04:57:11;;;;;;;6.97;4.00;;;17.70;99.90;;;;;;5024003;28;20739;-70
2022/08/25 04:59:38;;;;;;;5.82;4.40;;;17.70;99.90;;;;;;5043330;28;20066;-70
2022/08/25 05:02:05;;;;;;;8.52;4.60;;;17.70;99.90;;;;;;5043035;28;20519;-70
2022/08/25 05:04:33;;;;;;;7.60;4.13;;;17.70;99.90;;;;;;5042031;28;20522;-70
2022/08/25 05:06:59;;;;;;;7.93;4.30;;;17.70;99.90;;;;;;5028004;28;20537;-70
2022/08/25 05:09:25;;;;;;;11.18;4.63;;;17.70;99.90;;;;;;5042210;28;20504;-70
2022/08/25 05:11:51;;;;;;;8.05;4.20;;;17.60;99.90;;;;;;5043032;28;20044;-70
2022/08/25 05:14:20;;;;;;;11.18;4.75;;;17.70;99.90;;;;;;5043706;28;20037;-70
2022/08/25 05:16:47;;;;;;;8.52;4.60;;;17.70;99.90;;;;;;5028807;28;20040;-71
2022/08/25 05:19:13;;;;;;;9.75;5.10;;;17.70;99.90;;;;;;5046538;28;20422;-70
2022/08/25 05:21:39;;;;;;;7.65;4.72;;;17.70;99.90;;;;;;5046112;28;20049;-70
2022/08/25 05:24:06;;;;;;;8.35;4.50;;;17.70;99.90;;;;;;5032171;28;20056;-71
2022/08/25 05:26:33;;;;;;;10.57;4.85;;;17.70;99.90;;;;;;5033159;28;20053;-71
2022/08/25 05:29:00;;;;;;;10.65;5.05;;;18.00;99.90;;;;;;5044726;28;20052;-70
2022/08/25 05:31:27;;;;;;;10.60;5.20;;;17.90;99.90;;;;;;5048667;28;20041;-71
2022/08/25 05:33:53;;;;;;;13.18;6.40;;;17.90;99.90;;;;;;5045282;28;20553;-71
2022/08/25 05:36:21;;;;;;;8.65;5.97;;;18.00;99.90;;;;;;5037323;28;20043;-71
2022/08/25 05:38:47;;;;;;;16.67;6.70;;;18.10;99.90;;;;;;5040812;28;20034;-70
2022/08/25 05:41:16;;;;;;;9.77;6.18;;;18.10;99.90;;;;;;5043359;28;20049;-70
2022/08/25 05:43:44;;;;;;;12.52;6.75;;;18.30;99.90;;;;;;5045577;28;20791;-71
2022/08/25 05:46:11;;;;;;;9.52;6.28;;;18.60;99.90;;;;;;5036967;28;20559;-72
2022/08/25 05:48:40;;;;;;;12.90;6.70;;;18.80;99.90;;;;;;5036846;28;20091;-71
2022/08/25 05:51:08;;;;;;;11.23;6.28;;;19.10;99.90;;;;;;5043869;28;20446;-71
2022/08/25 05:53:35;;;;;;;10.85;6.20;;;19.20;99.90;;;;;;5043017;28;20041;-71
2022/08/25 05:56:01;;;;;;;10.40;6.22;;;19.40;99.90;;;;;;5041710;28;20083;-71
2022/08/25 05:58:28;;;;;;;13.32;6.50;;;19.60;99.90;;;;;;5026543;28;20060;-71
2022/08/25 06:00:54;;;;;;;13.18;6.35;;;19.80;99.90;;;;;;5041146;28;20040;-71
2022/08/25 06:03:20;;;;;;;11.35;6.10;;;20.00;99.90;;;;;;5039782;28;20047;-71
2022/08/25 06:05:46;;;;;;;12.82;6.30;;;20.20;99.90;;;;;;5041665;28;20518;-71
2022/08/25 06:08:12;;;;;;;10.40;6.13;;;20.40;99.90;;;;;;5026790;28;20049;-71
2022/08/25 06:10:38;;;;;;;8.52;5.90;;;20.50;99.90;;;;;;5040476;28;20880;-71
2022/08/25 06:13:04;;;;;;;13.15;5.70;;;20.60;99.90;;;;;;5045998;28;20138;-72
2022/08/25 06:15:30;;;;;;;9.20;5.82;;;20.70;99.90;;;;;;5046880;28;20056;-71
2022/08/25 06:18:01;;;;;;;9.95;5.45;;;20.90;99.90;;;;;;5028502;28;20049;-71
2022/08/25 06:20:29;;;;;;;12.63;5.60;;;21.00;99.90;;;;;;5041937;28;20045;-72
2022/08/25 06:22:56;;;;;;;10.77;5.35;;;21.00;99.90;;;;;;5044097;28;20827;-71
2022/08/25 06:25:24;;;;;;;8.75;5.53;;;21.10;99.90;;;;;;5040968;28;20056;-71
2022/08/25 06:27:50;;;;;;;11.10;5.50;;;21.20;99.90;;;;;;5021699;28;20129;-71
2022/08/25 06:30:19;;;;;;;10.50;5.30;;;21.30;99.90;;;;;;5037640;28;20094;-71
2022/08/25 06:32:46;;;;;;;7.63;4.65;;;21.40;99.90;;;;;;5040771;28;20042;-72
2022/08/25 06:35:16;;;;;;;11.63;5.38;;;21.50;99.90;;;;;;5041813;28;20049;-71
2022/08/25 06:37:43;;;;;;;12.63;4.80;;;21.70;99.90;;;;;;5024834;28;20117;-71
2022/08/25 06:40:09;;;;;;;10.35;5.07;;;21.70;99.90;;;;;;5048449;28;20055;-72
2022/08/25 06:42:36;;;;;;;8.00;5.82;;;21.80;99.90;;;;;;5040475;28;20079;-72
2022/08/25 06:45:02;;;;;;;10.68;4.43;;;21.80;99.90;;;;;;5047227;28;20048;-72
2022/08/25 06:47:28;;;;;;;13.95;5.05;;;21.90;99.90;;;;;;5015228;28;20037;-71
2022/08/25 06:49:54;;;;;;;9.82;5.35;;;22.00;99.90;;;;;;5040557;28;20133;-71
2022/08/25 06:52:20;;;;;;;8.23;4.93;;;22.10;99.90;;;;;;5044119;28;20072;-72
2022/08/25 06:54:46;;;;;;;13.23;5.45;;;22.10;99.90;;;;;;5045659;28;20045;-72
2022/08/25 06:57:12;;;;;;;11.75;5.15;;;22.20;99.90;;;;;;5026494;28;20055;-71
2022/08/25 06:59:38;;;;;;;9.43;4.78;;;22.20;99.90;;;;;;5044725;28;20496;-72
2022/08/25 07:02:05;;;;;;;7.95;4.78;;;22.20;99.90;;;;;;5041036;28;20057;-69
2022/08/25 07:04:33;;;;;;;10.95;5.18;;;22.30;99.90;;;;;;5046162;28;20044;-72
2022/08/25 07:06:58;;;;;;;8.05;4.50;;;22.40;99.90;;;;;;5027696;28;20051;-71
2022/08/25 07:09:24;;;;;;;11.27;4.90;;;22.40;99.90;;;;;;5043037;28;20404;-72
2022/08/25 07:11:51;;;;;;;11.45;4.70;;;22.50;99.90;;;;;;5042996;28;20645;-72
2022/08/25 07:14:17;;;;;;;11.55;4.88;;;22.50;99.90;;;;;;5039412;28;20400;-72
2022/08/25 07:16:43;;;;;;;9.38;4.32;;;22.50;99.90;;;;;;5031320;28;20037;-72
2022/08/25 07:19:09;;;;;;;8.13;4.20;;;22.50;99.90;;;;;;5043246;28;20045;-71
2022/08/25 07:21:38;;;;;;;9.30;4.60;;;22.70;99.90;;;;;;5042185;28;20048;-71
2022/08/25 07:24:07;;;;;;;8.50;4.13;;;22.70;99.90;;;;;;5042172;28;20041;-71
2022/08/25 07:26:36;;;;;;;7.38;4.65;;;22.80;99.90;;;;;;5027631;28;20052;-71
2022/08/25 07:29:24;;;;;;;7.80;4.43;;;22.80;99.90;;;;;;5038745;28;20116;-71
2022/08/25 07:31:49;;;;;;;9.85;4.47;;;22.90;99.90;;;;;;5042097;28;20052;-71
2022/08/25 07:37:03;;;;;;;13.10;5.28;;;23.00;99.90;;;;;;5030114;28;20091;-71
2022/08/25 07:39:29;;;;;;;9.45;4.47;;;23.10;99.90;;;;;;5041874;28;20677;-71
2022/08/25 07:41:55;;;;;;;8.73;4.20;;;23.10;99.90;;;;;;5027041;28;20061;-71
2022/08/25 07:44:22;;;;;;;9.02;4.00;;;23.10;99.90;;;;;;5032708;28;20115;-72
2022/08/25 07:46:48;;;;;;;8.75;4.28;;;23.20;99.90;;;;;;5018974;28;20175;-72
2022/08/25 07:49:14;;;;;;;10.43;3.92;;;23.20;99.90;;;;;;5031186;28;20052;-71
2022/08/25 07:51:40;;;;;;;9.00;4.63;;;23.30;99.90;;;;;;5029097;28;20057;-71
2022/08/25 07:54:06;;;;;;;9.73;4.60;;;23.40;99.90;;;;;;5033117;28;20175;-71
2022/08/25 07:56:31;;;;;;;10.35;4.15;;;23.40;99.90;;;;;;5016466;28;20045;-72
2022/08/25 07:58:57;;;;;;;11.95;4.80;;;23.50;99.90;;;;;;5034564;28;20991;-71
2022/08/25 08:01:24;;;;;;;9.55;4.40;;;23.50;99.90;;;;;;5029101;28;20397;-71
2022/08/25 08:03:50;;;;;;;6.57;4.60;;;23.50;99.90;;;;;;5027875;28;20044;-72
2022/08/25 08:06:21;;;;;;;9.30;4.63;;;23.60;99.90;;;;;;5021260;28;20079;-72
2022/08/25 08:08:49;;;;;;;6.90;3.97;;;23.70;99.90;;;;;;5024268;28;20041;-71
2022/08/25 08:11:29;;;;;;;11.38;4.57;;;23.80;99.90;;;;;;5019467;28;20057;-72
2022/08/25 08:13:56;;;;;;;15.02;4.20;;;23.90;99.90;;;;;;5011523;28;20083;-72
2022/08/25 08:16:24;;;;;;;9.68;3.90;;;23.90;99.90;;;;;;5020385;28;20643;-72
2022/08/25 08:18:50;;;;;;;8.65;4.40;;;23.90;99.90;;;;;;5027067;28;20049;-72
2022/08/25 08:21:18;;;;;;;10.65;4.03;;;24.10;99.90;;;;;;5031475;28;20676;-71
2022/08/25 08:23:44;;;;;;;8.13;3.83;;;24.20;99.90;;;;;;5011439;28;20064;-72
2022/08/25 08:26:10;;;;;;;8.80;3.78;;;24.30;99.90;;;;;;5031127;28;20475;-72
2022/08/25 08:28:36;;;;;;;10.85;4.07;;;24.40;99.90;;;;;;5023175;28;20048;-72
2022/08/25 08:31:02;;;;;;;4.90;3.50;;;24.50;99.90;;;;;;5031385;28;20082;-71
2022/08/25 08:33:28;;;;;;;9.55;3.80;;;24.50;99.90;;;;;;5030449;28;21528;-72
2022/08/25 08:36:00;;;;;;;11.48;3.80;;;24.50;99.90;;;;;;5030794;28;20037;-72
2022/08/25 08:38:26;;;;;;;7.22;4.15;;;24.60;99.90;;;;;;5016897;28;20486;-72
2022/08/25 08:43:51;;;;;;;10.27;3.60;;;24.80;99.90;;;;;;5030006;28;20087;-71
2022/08/25 08:46:20;;;;;;;7.57;3.50;;;24.80;99.90;;;;;;5020058;28;20051;-72
2022/08/25 08:49:00;;;;;;;5.05;3.28;;;24.80;99.90;;;;;;5025465;28;20183;-71
2022/08/25 08:51:44;;;;;;;5.38;3.70;;;24.90;99.90;;;;;;5014966;28;20049;-72
2022/08/25 08:54:19;;;;;;;7.97;3.80;;;25.00;99.90;;;;;;5033392;28;20138;-72
2022/08/25 08:56:49;;;;;;;4.40;2.90;;;25.20;99.90;;;;;;5017884;28;20991;-72
2022/08/25 08:59:24;;;;;;;4.15;3.25;;;25.40;99.90;;;;;;5033249;28;20046;-72
2022/08/25 09:02:00;;;;;;;4.93;3.10;;;25.40;99.90;;;;;;5031196;28;20055;-72
2022/08/25 09:04:43;;;;;;;4.47;2.97;;;25.50;99.90;;;;;;5035163;28;20060;-72
2022/08/25 09:07:36;;;;;;;7.22;3.42;;;25.50;99.90;;;;;;5019223;28;20090;-72
2022/08/25 09:10:03;;;;;;;4.35;3.03;;;25.50;99.90;;;;;;5030176;28;20128;-72
2022/08/25 09:12:34;;;;;;;5.63;2.95;;;25.80;99.90;;;;;;5035139;28;20052;-71
2022/08/25 09:15:12;;;;;;;;;;;25.90;99.90;;;;;;5035775;28;20123;-72
2022/08/25 09:17:57;;;;;;;9.10;2.67;;;26.00;99.90;;;;;;5018179;28;19935;-73
2022/08/25 09:20:54;;;;;;;7.80;3.00;;;26.00;99.90;;;;;;5034387;28;20080;-72
2022/08/25 09:23:51;;;;;;;6.13;3.00;;;26.00;99.90;;;;;;5032392;28;20041;-72
2022/08/25 09:26:38;;;;;;;3.20;2.47;;;26.20;99.90;;;;;;5025891;28;20404;-72
2022/08/25 09:29:12;;;;;;;6.05;2.85;;;26.30;99.90;;;;;;5035150;28;20045;-72
2022/08/25 09:31:40;;;;;;;8.75;2.80;;;26.20;99.90;;;;;;5033176;28;20527;-73
2022/08/25 09:34:20;;;;;;;8.77;2.63;;;26.30;99.90;;;;;;5035714;28;20057;-72
2022/08/25 09:36:49;;;;;;;6.95;2.97;;;26.50;99.90;;;;;;5019245;28;20045;-72
2022/08/25 09:39:15;;;;;;;6.45;2.75;;;26.50;99.90;;;;;;5035977;28;20056;-72
2022/08/25 09:41:43;;;;;;;4.97;2.63;;;26.50;99.90;;;;;;5030986;28;20065;-72
2022/08/25 09:44:23;;;;;;;5.55;2.47;;;26.70;99.90;;;;;;5031670;28;20084;-73
2022/08/25 09:47:00;;;;;;;5.30;2.40;;;26.70;99.90;;;;;;5019621;28;20697;-72
2022/08/25 09:49:48;;;;;;;6.97;2.22;;;26.80;99.90;;;;;;5028931;28;20389;-72
2022/08/25 09:52:41;;;;;;;7.20;2.70;;;26.90;99.90;;;;;;5020004;28;20057;-73
2022/08/25 09:55:12;;;;;;;4.93;2.47;;;27.00;99.90;;;;;;5016505;28;21017;-72
2022/08/25 09:57:53;;;;;;;6.63;2.20;;;27.10;99.90;;;;;;5006007;28;20045;-72
2022/08/25 10:00:21;;;;;;;5.38;2.75;;;27.10;99.90;;;;;;5019855;28;20045;-73
2022/08/25 10:03:22;;;;;;;5.85;2.65;;;27.20;99.90;;;;;;5014672;28;20645;-73
2022/08/25 10:05:55;;;;;;;5.35;2.55;;;27.30;99.90;;;;;;4990351;28;20160;-73
2022/08/25 10:08:44;;;;;;;6.90;2.50;;;27.30;99.90;;;;;;5002475;28;20106;-73
2022/08/25 10:11:14;;;;;;;5.07;2.67;;;27.40;99.90;;;;;;5018213;28;20045;-73
2022/08/25 10:13:45;;;;;;;4.30;2.30;;;27.50;99.90;;;;;;5018250;28;20072;-72
2022/08/25 10:16:27;;;;;;;6.18;2.30;;;27.60;99.90;;;;;;5011922;28;20087;-72
2022/08/25 10:19:27;;;;;;;7.03;2.47;;;27.60;99.90;;;;;;5012676;28;20053;-72
2022/08/25 10:22:08;;;;;;;6.15;2.20;;;27.70;99.00;;;;;;4997426;28;20080;-72
2022/08/25 10:24:36;;;;;;;7.15;2.53;;;27.60;99.00;;;;;;5018259;28;20040;-72
2022/08/25 10:27:21;;;;;;;8.13;3.00;;;27.50;97.90;;;;;;5003092;28;20082;-71
2022/08/25 10:30:22;;;;;;;6.72;2.70;;;27.60;98.00;;;;;;5013698;28;20142;-73
2022/08/25 10:33:26;;;;;;;5.40;2.58;;;27.70;98.00;;;;;;5017186;28;20059;-72
2022/08/25 10:35:51;;;;;;;8.10;2.65;;;27.60;98.60;;;;;;5018193;28;20056;-72
2022/08/25 10:38:35;;;;;;;7.28;2.45;;;27.90;99.30;;;;;;4998584;28;20048;-72
2022/08/25 10:41:14;;;;;;;5.93;2.40;;;27.80;97.90;;;;;;5017691;28;20053;-73
2022/08/25 10:43:56;;;;;;;7.97;2.28;;;27.80;98.50;;;;;;5019649;28;20049;-73
2022/08/25 10:46:40;;;;;;;5.72;2.75;;;27.80;98.80;;;;;;5002807;28;20053;-73
2022/08/25 10:49:11;;;;;;;5.82;2.55;;;27.90;98.80;;;;;;5016851;28;20057;-72
2022/08/25 10:51:53;;;;;;;6.57;2.88;;;27.90;98.80;;;;;;5014801;28;20056;-73
2022/08/25 10:54:45;;;;;;;4.38;2.50;;;27.90;98.60;;;;;;5011833;28;20033;-73
2022/08/25 10:57:36;;;;;;;3.53;2.15;;;27.90;98.10;;;;;;5000196;28;20057;-72
2022/08/25 11:00:02;;;;;;;8.38;2.30;;;28.00;95.10;;;;;;5014722;28;20091;-72
2022/08/25 11:03:05;;;;;;;5.70;2.00;;;28.00;96.20;;;;;;5016977;28;20045;-73
2022/08/25 11:05:39;;;;;;;4.25;2.22;;;28.20;95.40;;;;;;4980847;28;20098;-72
2022/08/25 11:08:39;;;;;;;6.15;2.28;;;28.10;95.40;;;;;;4998615;28;20056;-73
2022/08/25 11:11:16;;;;;;;4.32;2.25;;;28.40;96.50;;;;;;5016685;28;20045;-72
2022/08/25 11:13:52;;;;;;;3.95;2.15;;;28.50;96.10;;;;;;5013900;28;21674;-72
2022/08/25 11:16:30;;;;;;;5.25;2.15;;;28.50;95.50;;;;;;4991274;28;20047;-72
2022/08/25 11:19:06;;;;;;;6.32;2.30;;;28.50;95.50;;;;;;5014088;28;20132;-72
2022/08/25 11:21:48;;;;;;;7.97;2.28;;;28.50;95.30;;;;;;4999507;28;20037;-73
2022/08/25 11:24:17;;;;;;;4.28;2.30;;;28.50;93.50;;;;;;5013511;28;20571;-72
2022/08/25 11:26:50;;;;;;;6.68;2.10;;;28.30;93.50;;;;;;5000598;28;20195;-72
2022/08/25 11:29:20;;;;;;;3.95;1.75;;;28.30;92.10;;;;;;5014889;28;20053;-72
2022/08/25 11:31:50;;;;;;;5.85;2.20;;;28.40;89.10;;;;;;5020468;28;20053;-72
2022/08/25 11:34:17;;;;;;;3.50;2.00;;;28.30;89.90;;;;;;5017117;28;20053;-72
2022/08/25 11:36:51;;;;;;;4.82;2.20;;;28.30;91.00;;;;;;5003761;28;20053;-72
2022/08/25 11:39:32;;;;;;;4.97;2.13;;;28.60;91.80;;;;;;4975692;28;20040;-72
2022/08/25 11:42:19;;;;;;;6.40;2.35;;;28.40;92.10;;;;;;5002662;28;20531;-72
2022/08/25 11:45:20;;;;;;;5.88;2.03;;;28.40;92.60;;;;;;5016370;28;20163;-72
2022/08/25 11:48:10;;;;;;;6.30;2.42;;;28.70;93.70;;;;;;5000378;28;21440;-72
2022/08/25 11:50:54;;;;;;;6.18;2.15;;;28.90;93.50;;;;;;5015554;28;20053;-72
2022/08/25 11:53:33;;;;;;;4.90;2.00;;;28.70;93.50;;;;;;5012928;28;20094;-72
2022/08/25 11:56:04;;;;;;;5.32;2.38;;;28.70;93.30;;;;;;5013974;28;20052;-72
2022/08/25 11:58:45;;;;;;;3.53;2.35;;;28.70;92.40;;;;;;5001964;28;20060;-72
2022/08/25 12:01:31;;;;;;;4.38;2.10;;;28.50;93.00;;;;;;5014507;28;20064;-72
2022/08/25 12:04:32;;;;;;;8.00;2.20;;;28.60;92.80;;;;;;5010773;28;20105;-72
2022/08/25 12:07:10;;;;;;;;;;;28.60;92.20;;;;;;5003576;28;20152;-73
2022/08/25 12:09:52;;;;;;;3.65;1.80;;;28.70;90.90;;;;;;5011989;28;19952;-73
2022/08/25 12:12:58;;;;;;;4.82;2.00;;;28.70;89.30;;;;;;5014137;28;20056;-72
2022/08/25 12:15:32;;;;;;;5.00;2.10;;;29.00;89.60;;;;;;5014669;28;20053;-72
2022/08/25 12:18:15;;;;;;;3.50;1.90;;;29.00;86.80;;;;;;5002265;28;20122;-72
2022/08/25 12:20:55;;;;;;;4.50;2.03;;;28.90;87.60;;;;;;5012854;28;20063;-73
2022/08/25 12:23:36;;;;;;;6.18;2.15;;;28.90;90.20;;;;;;5008219;28;20075;-72
2022/08/25 12:26:40;;;;;;;7.75;2.00;;;29.00;92.20;;;;;;5015503;28;20045;-72
2022/08/25 12:29:15;;;;;;;6.07;2.47;;;29.00;89.30;;;;;;5010700;28;20142;-72
2022/08/25 12:31:56;;;;;;;2.97;2.35;;;29.10;90.60;;;;;;5020387;28;20575;-72
2022/08/25 12:34:40;;;;;;;6.65;2.40;;;29.00;86.80;;;;;;5018053;28;20061;-72
2022/08/25 12:37:15;;;;;;;4.43;1.95;;;29.10;89.40;;;;;;5007554;28;20159;-72
2022/08/25 12:39:50;;;;;;;4.60;2.08;;;29.10;86.30;;;;;;5017709;28;20573;-72
2022/08/25 12:42:33;;;;;;;5.85;2.10;;;29.00;85.50;;;;;;5018355;28;20211;-72
2022/08/25 12:45:18;;;;;;;3.15;2.13;;;29.00;86.40;;;;;;5026705;28;20049;-72
2022/08/25 12:47:46;;;;;;;4.80;2.03;;;29.00;86.60;;;;;;5002753;28;20079;-72
2022/08/25 12:50:44;;;;;;;3.63;2.20;;;29.10;85.60;;;;;;5019991;28;20049;-72
2022/08/25 12:53:16;;;;;;;6.05;2.00;;;29.20;83.50;;;;;;5019564;28;20064;-73
2022/08/25 12:55:58;;;;;;;3.75;1.92;;;29.00;83.10;;;;;;5020414;28;20040;-72
2022/08/25 12:58:34;;;;;;;4.80;1.85;;;29.10;81.70;;;;;;5005981;28;20072;-73
2022/08/25 13:01:05;;;;;;;3.35;2.03;;;29.00;82.80;;;;;;5016515;28;20420;-73
2022/08/25 13:03:55;;;;;;;4.50;1.95;;;29.00;82.80;;;;;;5020473;28;20049;-73
2022/08/25 13:06:31;;;;;;;2.53;1.83;;;29.10;83.20;;;;;;5000972;28;20107;-72
2022/08/25 13:09:32;;;;;;;4.72;2.30;;;29.20;83.50;;;;;;5014628;28;20290;-72
2022/08/25 13:12:29;;;;;;;3.05;1.90;;;29.20;83.20;;;;;;5015640;28;20861;-73
2022/08/25 13:14:56;;;;;;;3.25;1.80;;;29.20;83.70;;;;;;5017223;28;20052;-72
2022/08/25 13:17:34;;;;;;;3.83;1.70;;;29.30;80.80;;;;;;5000595;28;21646;-73